Private Wetterstation Sandau
Wetterdaten: Sonntag, 08.07.2012
Datum Zeit Temp. A. Feuchte A. Luftdruck Regen Wind Richtung Richtung Taupunkt Windchill
08.07.2012 00:01 17,9 C 81 % 1013,5 hPa 0,0 l/m 1,4 km/h (1 Bft) S-SO 157 14,6 C 17,9 C
08.07.2012 00:06 17,8 C 81 % 1013,3 hPa 0,0 l/m 0,0 km/h (0 Bft) S-SO 157 14,5 C 17,8 C
08.07.2012 00:11 17,8 C 82 % 1013,3 hPa 0,0 l/m 3,6 km/h (1 Bft) S-SO 157 14,7 C 17,8 C
08.07.2012 00:16 17,7 C 82 % 1013,1 hPa 0,0 l/m 1,4 km/h (1 Bft) S-SO 157 14,6 C 17,7 C
08.07.2012 00:21 17,6 C 82 % 1013,1 hPa 0,0 l/m 0,0 km/h (0 Bft) S-SO 157 14,5 C 17,6 C
08.07.2012 00:26 17,5 C 82 % 1013,1 hPa 0,0 l/m 0,0 km/h (0 Bft) S-SO 157 14,4 C 17,5 C
08.07.2012 00:31 17,4 C 82 % 1013,1 hPa 0,0 l/m 0,0 km/h (0 Bft) S-SO 157 14,3 C 17,4 C
08.07.2012 00:36 17,3 C 83 % 1013,1 hPa 0,0 l/m 0,0 km/h (0 Bft) S-SO 157 14,4 C 17,3 C
08.07.2012 00:41 17,3 C 83 % 1013,0 hPa 0,0 l/m 0,0 km/h (0 Bft) S-SO 157 14,4 C 17,3 C
08.07.2012 00:46 17,2 C 83 % 1013,1 hPa 0,0 l/m 0,0 km/h (0 Bft) S-SO 157 14,3 C 17,2 C
08.07.2012 00:51 17,1 C 83 % 1013,1 hPa 0,0 l/m 0,0 km/h (0 Bft) S-SO 157 14,2 C 17,1 C
08.07.2012 00:56 17,0 C 84 % 1013,0 hPa 0,0 l/m 1,4 km/h (1 Bft) S-SO 157 14,3 C 17,0 C
08.07.2012 01:01 16,9 C 84 % 1012,9 hPa 0,0 l/m 0,0 km/h (0 Bft) S-SO 157 14,2 C 16,9 C
08.07.2012 01:06 16,9 C 84 % 1012,9 hPa 0,0 l/m 1,4 km/h (1 Bft) S-SO 157 14,2 C 16,9 C
08.07.2012 01:11 16,8 C 84 % 1012,8 hPa 0,0 l/m 0,0 km/h (0 Bft) S-SO 157 14,1 C 16,8 C
08.07.2012 01:16 16,8 C 85 % 1012,8 hPa 0,0 l/m 0,0 km/h (0 Bft) S-SO 157 14,3 C 16,8 C
08.07.2012 01:21 16,7 C 85 % 1013,0 hPa 0,0 l/m 0,0 km/h (0 Bft) S-SO 157 14,2 C 16,7 C
08.07.2012 01:26 16,6 C 85 % 1012,8 hPa 0,0 l/m 0,0 km/h (0 Bft) S-SO 157 14,1 C 16,6 C
08.07.2012 01:31 16,5 C 85 % 1012,8 hPa 0,0 l/m 0,0 km/h (0 Bft) S-SO 157 14,0 C 16,5 C
08.07.2012 01:36 16,4 C 85 % 1012,7 hPa 0,0 l/m 0,0 km/h (0 Bft) S-SO 157 13,9 C 16,4 C
08.07.2012 01:41 16,4 C 85 % 1012,8 hPa 0,0 l/m 0,0 km/h (0 Bft) S-SO 157 13,9 C 16,4 C
08.07.2012 01:46 16,3 C 86 % 1012,7 hPa 0,0 l/m 0,0 km/h (0 Bft) S-SO 157 14,0 C 16,3 C
08.07.2012 01:51 16,3 C 86 % 1012,8 hPa 0,0 l/m 1,8 km/h (1 Bft) O-SO 112 14,0 C 16,3 C
08.07.2012 01:56 16,2 C 86 % 1012,8 hPa 0,0 l/m 2,5 km/h (1 Bft) O-SO 112 13,9 C 16,2 C
08.07.2012 02:01 16,1 C 86 % 1012,7 hPa 0,0 l/m 2,5 km/h (1 Bft) O-NO 67 13,8 C 16,1 C
08.07.2012 02:06 15,9 C 86 % 1012,7 hPa 0,0 l/m 2,5 km/h (1 Bft) O-NO 67 13,6 C 15,9 C
08.07.2012 02:11 15,9 C 87 % 1012,7 hPa 0,0 l/m 0,0 km/h (0 Bft) O-NO 67 13,7 C 15,9 C
08.07.2012 02:16 15,9 C 87 % 1012,6 hPa 0,0 l/m 0,0 km/h (0 Bft) O-NO 67 13,7 C 15,9 C
08.07.2012 02:21 15,9 C 87 % 1012,6 hPa 0,0 l/m 0,0 km/h (0 Bft) O-NO 67 13,7 C 15,9 C
08.07.2012 02:26 15,8 C 87 % 1012,7 hPa 0,0 l/m 2,5 km/h (1 Bft) O-NO 67 13,6 C 15,8 C
08.07.2012 02:31 15,6 C 87 % 1012,6 hPa 0,0 l/m 1,4 km/h (1 Bft) O-SO 112 13,4 C 15,6 C
08.07.2012 02:36 15,5 C 87 % 1012,6 hPa 0,0 l/m 0,0 km/h (0 Bft) SO 135 13,3 C 15,5 C
08.07.2012 02:41 15,5 C 87 % 1012,6 hPa 0,0 l/m 0,0 km/h (0 Bft) O-SO 112 13,3 C 15,5 C
08.07.2012 02:46 15,4 C 87 % 1012,6 hPa 0,0 l/m 3,2 km/h (1 Bft) O-SO 112 13,2 C 15,4 C
08.07.2012 02:51 15,4 C 87 % 1012,6 hPa 0,0 l/m 3,6 km/h (1 Bft) O-SO 112 13,2 C 15,4 C
08.07.2012 02:56 15,4 C 88 % 1012,7 hPa 0,0 l/m 4,0 km/h (1 Bft) O-SO 112 13,4 C 15,4 C
08.07.2012 03:01 15,3 C 88 % 1012,6 hPa 0,0 l/m 2,5 km/h (1 Bft) SO 135 13,3 C 15,3 C
08.07.2012 03:06 15,3 C 88 % 1012,6 hPa 0,0 l/m 3,6 km/h (1 Bft) O-SO 112 13,3 C 15,3 C
08.07.2012 03:11 15,3 C 88 % 1012,6 hPa 0,0 l/m 0,0 km/h (0 Bft) O-SO 112 13,3 C 15,3 C
08.07.2012 03:16 15,3 C 88 % 1012,6 hPa 0,0 l/m 3,2 km/h (1 Bft) SO 135 13,3 C 15,3 C
08.07.2012 03:21 15,3 C 88 % 1012,5 hPa 0,0 l/m 3,2 km/h (1 Bft) O-SO 112 13,3 C 15,3 C
08.07.2012 03:26 15,4 C 88 % 1012,6 hPa 0,0 l/m 0,0 km/h (0 Bft) SO 135 13,4 C 15,4 C
08.07.2012 03:31 15,4 C 89 % 1012,5 hPa 0,0 l/m 4,0 km/h (1 Bft) O-SO 112 13,6 C 15,4 C
08.07.2012 03:36 15,4 C 89 % 1012,3 hPa 0,0 l/m 1,8 km/h (1 Bft) SO 135 13,6 C 15,4 C
08.07.2012 03:41 15,3 C 89 % 1012,3 hPa 0,0 l/m 1,4 km/h (1 Bft) SO 135 13,5 C 15,3 C
08.07.2012 03:46 15,3 C 89 % 1012,2 hPa 0,0 l/m 2,9 km/h (1 Bft) SO 135 13,5 C 15,3 C
08.07.2012 03:51 15,3 C 89 % 1012,1 hPa 0,0 l/m 1,1 km/h (1 Bft) SO 135 13,5 C 15,3 C
08.07.2012 03:56 15,3 C 89 % 1012,1 hPa 0,0 l/m 2,5 km/h (1 Bft) SO 135 13,5 C 15,3 C
08.07.2012 04:01 15,3 C 89 % 1012,1 hPa 0,0 l/m 1,4 km/h (1 Bft) SO 135 13,5 C 15,3 C
08.07.2012 04:06 15,2 C 89 % 1012,1 hPa 0,0 l/m 1,4 km/h (1 Bft) O-SO 112 13,4 C 15,2 C
08.07.2012 04:11 15,1 C 89 % 1012,1 hPa 0,0 l/m 1,4 km/h (1 Bft) SO 135 13,3 C 15,1 C
08.07.2012 04:16 14,9 C 89 % 1012,1 hPa 0,0 l/m 4,3 km/h (1 Bft) O-SO 112 13,1 C 14,9 C
08.07.2012 04:21 14,9 C 90 % 1012,0 hPa 0,0 l/m 2,2 km/h (1 Bft) O-SO 112 13,3 C 14,9 C
08.07.2012 04:26 14,9 C 90 % 1011,9 hPa 0,0 l/m 1,4 km/h (1 Bft) O-SO 112 13,3 C 14,9 C
08.07.2012 04:31 14,9 C 89 % 1011,8 hPa 0,0 l/m 0,0 km/h (0 Bft) O-SO 112 13,1 C 14,9 C
08.07.2012 04:36 14,8 C 89 % 1012,0 hPa 0,0 l/m 0,0 km/h (0 Bft) O-SO 112 13,0 C 14,8 C
08.07.2012 04:41 14,8 C 89 % 1012,0 hPa 0,0 l/m 0,0 km/h (0 Bft) O-SO 112 13,0 C 14,8 C
08.07.2012 04:46 14,7 C 89 % 1012,0 hPa 0,0 l/m 0,0 km/h (0 Bft) O-SO 112 12,9 C 14,7 C
08.07.2012 04:51 14,6 C 89 % 1011,9 hPa 0,0 l/m 0,0 km/h (0 Bft) SO 135 12,8 C 14,6 C
08.07.2012 04:56 14,5 C 90 % 1011,8 hPa 0,0 l/m 5,0 km/h (1 Bft) O-SO 112 12,9 C 14,5 C
08.07.2012 05:01 14,5 C 90 % 1011,8 hPa 0,0 l/m 0,0 km/h (0 Bft) O 90 12,9 C 14,5 C
08.07.2012 05:06 14,5 C 90 % 1011,8 hPa 0,0 l/m 0,0 km/h (0 Bft) O-SO 112 12,9 C 14,5 C
08.07.2012 05:11 14,4 C 90 % 1011,7 hPa 0,0 l/m 2,5 km/h (1 Bft) O-SO 112 12,8 C 14,4 C
08.07.2012 05:16 14,6 C 90 % 1011,7 hPa 0,0 l/m 2,2 km/h (1 Bft) SO 135 13,0 C 14,6 C
08.07.2012 05:21 14,8 C 91 % 1011,7 hPa 0,0 l/m 3,6 km/h (1 Bft) SO 135 13,3 C 14,8 C
08.07.2012 05:26 14,9 C 91 % 1011,7 hPa 0,0 l/m 0,0 km/h (0 Bft) O-SO 112 13,4 C 14,9 C
08.07.2012 05:31 14,9 C 91 % 1011,6 hPa 0,0 l/m 2,9 km/h (1 Bft) O-SO 112 13,4 C 14,9 C
08.07.2012 05:36 14,9 C 91 % 1011,6 hPa 0,0 l/m 2,5 km/h (1 Bft) O-SO 112 13,4 C 14,9 C
08.07.2012 05:41 14,9 C 91 % 1011,6 hPa 0,0 l/m 4,0 km/h (1 Bft) O-NO 67 13,4 C 14,9 C
08.07.2012 05:46 14,9 C 91 % 1011,6 hPa 0,0 l/m 2,2 km/h (1 Bft) O-NO 67 13,4 C 14,9 C
08.07.2012 05:51 15,1 C 91 % 1011,5 hPa 0,0 l/m 2,2 km/h (1 Bft) O-SO 112 13,6 C 15,1 C
08.07.2012 05:56 15,6 C 90 % 1011,5 hPa 0,0 l/m 8,3 km/h (2 Bft) O-SO 112 14,0 C 15,6 C
08.07.2012 06:01 16,6 C 89 % 1011,5 hPa 0,0 l/m 5,4 km/h (1 Bft) O-SO 112 14,8 C 16,6 C
08.07.2012 06:06 17,5 C 86 % 1011,5 hPa 0,0 l/m 4,0 km/h (1 Bft) O-NO 67 15,1 C 17,5 C
08.07.2012 06:11 18,3 C 82 % 1011,4 hPa 0,0 l/m 2,9 km/h (1 Bft) O-NO 67 15,2 C 18,3 C
08.07.2012 06:16 18,9 C 80 % 1011,4 hPa 0,0 l/m 2,2 km/h (1 Bft) O 90 15,4 C 18,9 C
08.07.2012 06:21 19,9 C 76 % 1011,4 hPa 0,0 l/m 4,0 km/h (1 Bft) O-NO 67 15,5 C 19,9 C
08.07.2012 06:26 21,4 C 72 % 1011,4 hPa 0,0 l/m 0,0 km/h (0 Bft) O-SO 112 16,1 C 21,4 C
08.07.2012 06:31 22,1 C 68 % 1011,4 hPa 0,0 l/m 2,5 km/h (1 Bft) O-SO 112 15,9 C 22,1 C
08.07.2012 06:36 22,8 C 66 % 1011,4 hPa 0,0 l/m 2,2 km/h (1 Bft) O 90 16,1 C 22,8 C
08.07.2012 06:41 23,9 C 63 % 1011,4 hPa 0,0 l/m 2,2 km/h (1 Bft) O-SO 112 16,4 C 23,9 C
08.07.2012 06:46 24,4 C 60 % 1011,3 hPa 0,0 l/m 5,0 km/h (1 Bft) SO 135 16,1 C 24,4 C
08.07.2012 06:51 24,7 C 60 % 1011,3 hPa 0,0 l/m 6,5 km/h (2 Bft) SO 135 16,4 C 24,7 C
08.07.2012 06:56 24,9 C 59 % 1011,2 hPa 0,0 l/m 4,3 km/h (1 Bft) SO 135 16,3 C 24,9 C
08.07.2012 07:01 25,2 C 59 % 1011,3 hPa 0,0 l/m 5,4 km/h (1 Bft) SO 135 16,6 C 25,2 C
08.07.2012 07:06 24,8 C 59 % 1011,3 hPa 0,0 l/m 4,0 km/h (1 Bft) SO 135 16,2 C 24,8 C
08.07.2012 07:11 25,2 C 59 % 1011,3 hPa 0,0 l/m 4,0 km/h (1 Bft) O-SO 112 16,6 C 25,2 C
08.07.2012 07:16 25,6 C 58 % 1011,3 hPa 0,0 l/m 4,3 km/h (1 Bft) NO 45 16,7 C 25,6 C
08.07.2012 07:21 25,8 C 57 % 1011,3 hPa 0,0 l/m 5,8 km/h (2 Bft) O 90 16,6 C 25,8 C
08.07.2012 07:26 25,2 C 58 % 1011,4 hPa 0,0 l/m 4,0 km/h (1 Bft) SO 135 16,3 C 25,2 C
08.07.2012 07:31 24,9 C 58 % 1011,4 hPa 0,0 l/m 5,8 km/h (2 Bft) O-NO 67 16,1 C 24,9 C
08.07.2012 07:36 24,1 C 62 % 1011,4 hPa 0,0 l/m 2,2 km/h (1 Bft) O 90 16,4 C 24,1 C
08.07.2012 07:41 22,8 C 65 % 1011,4 hPa 0,0 l/m 3,6 km/h (1 Bft) S-SO 157 15,9 C 22,8 C
08.07.2012 07:46 22,1 C 68 % 1011,3 hPa 0,0 l/m 2,9 km/h (1 Bft) O-SO 112 15,9 C 22,1 C
08.07.2012 07:51 21,5 C 71 % 1011,3 hPa 0,0 l/m 6,1 km/h (2 Bft) O-NO 67 16,0 C 21,5 C
08.07.2012 07:56 21,3 C 72 % 1011,3 hPa 0,0 l/m 2,2 km/h (1 Bft) S-SO 157 16,0 C 21,3 C
08.07.2012 08:01 21,6 C 72 % 1011,3 hPa 0,0 l/m 4,0 km/h (1 Bft) SW 225 16,3 C 21,6 C
08.07.2012 08:06 22,4 C 70 % 1011,2 hPa 0,0 l/m 5,8 km/h (2 Bft) O 90 16,7 C 22,4 C
08.07.2012 08:11 22,4 C 69 % 1011,3 hPa 0,0 l/m 7,2 km/h (2 Bft) SO 135 16,4 C 22,4 C
08.07.2012 08:16 22,6 C 69 % 1011,1 hPa 0,0 l/m 5,0 km/h (1 Bft) O-SO 112 16,6 C 22,6 C
08.07.2012 08:21 22,9 C 68 % 1011,0 hPa 0,0 l/m 2,5 km/h (1 Bft) SO 135 16,7 C 22,9 C
08.07.2012 08:26 23,1 C 67 % 1011,0 hPa 0,0 l/m 9,4 km/h (2 Bft) O-SO 112 16,6 C 23,1 C
08.07.2012 08:31 23,0 C 67 % 1011,0 hPa 0,0 l/m 3,2 km/h (1 Bft) SO 135 16,5 C 23,0 C
08.07.2012 08:36 23,1 C 67 % 1011,0 hPa 0,0 l/m 8,3 km/h (2 Bft) SO 135 16,6 C 23,1 C
08.07.2012 08:41 23,4 C 65 % 1011,0 hPa 0,0 l/m 5,8 km/h (2 Bft) S-SO 157 16,4 C 23,4 C
08.07.2012 08:46 23,5 C 65 % 1010,9 hPa 0,0 l/m 0,0 km/h (0 Bft) O 90 16,5 C 23,5 C
08.07.2012 08:51 23,4 C 65 % 1010,8 hPa 0,0 l/m 2,5 km/h (1 Bft) O-SO 112 16,4 C 23,4 C
08.07.2012 08:56 23,8 C 64 % 1010,7 hPa 0,0 l/m 6,8 km/h (2 Bft) SO 135 16,6 C 23,8 C
08.07.2012 09:01 23,5 C 64 % 1010,6 hPa 0,0 l/m 9,4 km/h (2 Bft) SO 135 16,3 C 23,5 C
08.07.2012 09:06 23,7 C 63 % 1010,6 hPa 0,0 l/m 6,1 km/h (2 Bft) O-SO 112 16,2 C 23,7 C
08.07.2012 09:11 23,8 C 63 % 1010,6 hPa 0,0 l/m 8,3 km/h (2 Bft) S-SO 157 16,3 C 23,8 C
08.07.2012 09:16 23,9 C 62 % 1010,4 hPa 0,0 l/m 3,6 km/h (1 Bft) SO 135 16,2 C 23,9 C
08.07.2012 09:21 24,4 C 62 % 1010,4 hPa 0,0 l/m 11,2 km/h (2 Bft) O-SO 112 16,6 C 24,4 C
08.07.2012 09:26 24,7 C 60 % 1010,4 hPa 0,0 l/m 4,3 km/h (1 Bft) O-SO 112 16,4 C 24,7 C
08.07.2012 09:31 24,9 C 60 % 1010,4 hPa 0,0 l/m 6,5 km/h (2 Bft) O 90 16,6 C 24,9 C
08.07.2012 09:36 25,0 C 59 % 1010,4 hPa 0,0 l/m 14,4 km/h (3 Bft) SO 135 16,4 C 25,0 C
08.07.2012 09:41 25,3 C 59 % 1010,3 hPa 0,0 l/m 5,8 km/h (2 Bft) S-SO 157 16,7 C 25,3 C
08.07.2012 09:46 25,1 C 59 % 1010,3 hPa 0,0 l/m 7,6 km/h (2 Bft) S-SO 157 16,5 C 25,1 C
08.07.2012 09:51 25,3 C 59 % 1010,3 hPa 0,0 l/m 3,6 km/h (1 Bft) SO 135 16,7 C 25,3 C
08.07.2012 09:56 25,5 C 57 % 1010,3 hPa 0,0 l/m 11,2 km/h (2 Bft) O-SO 112 16,3 C 25,5 C
08.07.2012 10:01 25,8 C 58 % 1010,2 hPa 0,0 l/m 6,5 km/h (2 Bft) S-SO 157 16,9 C 25,8 C
08.07.2012 10:06 25,9 C 57 % 1010,2 hPa 0,0 l/m 4,0 km/h (1 Bft) SO 135 16,7 C 25,9 C
08.07.2012 10:11 25,8 C 57 % 1010,2 hPa 0,0 l/m 4,0 km/h (1 Bft) O 90 16,6 C 25,8 C
08.07.2012 10:16 25,9 C 57 % 1010,2 hPa 0,0 l/m 9,4 km/h (2 Bft) S-SO 157 16,7 C 25,9 C
08.07.2012 10:21 25,9 C 56 % 1010,2 hPa 0,0 l/m 10,1 km/h (2 Bft) O-SO 112 16,4 C 25,9 C
08.07.2012 10:26 25,6 C 57 % 1010,1 hPa 0,0 l/m 5,0 km/h (1 Bft) SO 135 16,4 C 25,6 C
08.07.2012 10:31 25,4 C 57 % 1010,0 hPa 0,0 l/m 11,5 km/h (2 Bft) O-SO 112 16,2 C 25,4 C
08.07.2012 10:36 26,1 C 56 % 1010,0 hPa 0,0 l/m 16,2 km/h (3 Bft) O 90 16,6 C 26,1 C
08.07.2012 10:41 26,3 C 55 % 1009,9 hPa 0,0 l/m 9,7 km/h (2 Bft) S-SO 157 16,5 C 26,3 C
08.07.2012 10:46 26,8 C 54 % 1009,9 hPa 0,0 l/m 16,9 km/h (3 Bft) SO 135 16,7 C 26,8 C
08.07.2012 10:51 26,6 C 52 % 1009,8 hPa 0,0 l/m 5,8 km/h (2 Bft) O 90 15,9 C 26,6 C
08.07.2012 10:56 26,8 C 52 % 1009,8 hPa 0,0 l/m 5,0 km/h (1 Bft) O-SO 112 16,1 C 26,8 C
08.07.2012 11:01 26,6 C 51 % 1009,7 hPa 0,0 l/m 4,7 km/h (1 Bft) SO 135 15,6 C 26,6 C
08.07.2012 11:06 26,7 C 52 % 1009,6 hPa 0,0 l/m 8,3 km/h (2 Bft) S-SO 157 16,0 C 26,7 C
08.07.2012 11:11 26,3 C 53 % 1009,5 hPa 0,0 l/m 7,6 km/h (2 Bft) SO 135 15,9 C 26,3 C
08.07.2012 11:16 26,5 C 54 % 1009,6 hPa 0,0 l/m 17,3 km/h (3 Bft) O-SO 112 16,4 C 26,5 C
08.07.2012 11:21 27,0 C 52 % 1009,5 hPa 0,0 l/m 9,7 km/h (2 Bft) S-SO 157 16,3 C 27,0 C
08.07.2012 11:26 26,8 C 52 % 1009,5 hPa 0,0 l/m 8,6 km/h (2 Bft) S-SO 157 16,1 C 26,8 C
08.07.2012 11:31 26,3 C 53 % 1009,5 hPa 0,0 l/m 6,8 km/h (2 Bft) SO 135 15,9 C 26,3 C
08.07.2012 11:36 26,4 C 53 % 1009,2 hPa 0,0 l/m 5,4 km/h (1 Bft) O-SO 112 16,0 C 26,4 C
08.07.2012 11:41 26,7 C 53 % 1009,2 hPa 0,0 l/m 6,5 km/h (2 Bft) S-SO 157 16,3 C 26,7 C
08.07.2012 11:46 26,8 C 51 % 1009,2 hPa 0,0 l/m 13,7 km/h (3 Bft) SO 135 15,8 C 26,8 C
08.07.2012 11:51 26,9 C 50 % 1009,2 hPa 0,0 l/m 4,7 km/h (1 Bft) O-SO 112 15,6 C 26,9 C
08.07.2012 11:56 26,4 C 52 % 1009,2 hPa 0,0 l/m 9,0 km/h (2 Bft) O-SO 112 15,7 C 26,4 C
08.07.2012 12:01 26,4 C 52 % 1009,2 hPa 0,0 l/m 8,3 km/h (2 Bft) SO 135 15,7 C 26,4 C
08.07.2012 12:06 26,8 C 52 % 1009,2 hPa 0,0 l/m 8,3 km/h (2 Bft) S-SO 157 16,1 C 26,8 C
08.07.2012 12:11 27,2 C 50 % 1009,3 hPa 0,0 l/m 9,7 km/h (2 Bft) S-SO 157 15,9 C 27,2 C
08.07.2012 12:16 27,6 C 48 % 1009,2 hPa 0,0 l/m 13,3 km/h (3 Bft) SO 135 15,6 C 27,6 C
08.07.2012 12:21 27,9 C 48 % 1009,2 hPa 0,0 l/m 5,8 km/h (2 Bft) O-SO 112 15,9 C 27,9 C
08.07.2012 12:26 27,7 C 47 % 1009,1 hPa 0,0 l/m 20,5 km/h (4 Bft) S-SO 157 15,3 C 27,7 C
08.07.2012 12:31 27,7 C 48 % 1009,2 hPa 0,0 l/m 12,6 km/h (3 Bft) S-SO 157 15,7 C 27,7 C
08.07.2012 12:36 28,4 C 46 % 1009,2 hPa 0,0 l/m 4,0 km/h (1 Bft) O-SO 112 15,6 C 28,4 C
08.07.2012 12:41 28,9 C 46 % 1009,1 hPa 0,0 l/m 7,2 km/h (2 Bft) S-SO 157 16,1 C 28,9 C
08.07.2012 12:46 28,8 C 46 % 1009,1 hPa 0,0 l/m 10,1 km/h (2 Bft) S-SO 157 16,0 C 28,8 C
08.07.2012 12:51 28,5 C 46 % 1009,1 hPa 0,0 l/m 3,2 km/h (1 Bft) S-SW 202 15,7 C 28,5 C
08.07.2012 12:56 28,4 C 46 % 1009,1 hPa 0,0 l/m 7,9 km/h (2 Bft) SO 135 15,6 C 28,4 C
08.07.2012 13:01 29,2 C 46 % 1009,1 hPa 0,0 l/m 10,1 km/h (2 Bft) SO 135 16,4 C 29,2 C
08.07.2012 13:06 30,1 C 44 % 1009,1 hPa 0,0 l/m 4,0 km/h (1 Bft) O-SO 112 16,5 C 30,1 C
08.07.2012 13:11 29,9 C 43 % 1008,8 hPa 0,0 l/m 10,8 km/h (2 Bft) S 180 15,9 C 29,9 C
08.07.2012 13:16 29,3 C 44 % 1008,9 hPa 0,0 l/m 11,5 km/h (2 Bft) S-SW 202 15,8 C 29,3 C
08.07.2012 13:21 29,3 C 45 % 1008,9 hPa 0,0 l/m 15,5 km/h (3 Bft) S-SW 202 16,1 C 29,3 C
08.07.2012 13:26 29,1 C 44 % 1009,0 hPa 0,0 l/m 4,0 km/h (1 Bft) SO 135 15,6 C 29,1 C
08.07.2012 13:31 28,8 C 46 % 1008,9 hPa 0,0 l/m 17,6 km/h (3 Bft) SO 135 16,0 C 28,8 C
08.07.2012 13:36 29,2 C 46 % 1008,8 hPa 0,0 l/m 9,4 km/h (2 Bft) S-SO 157 16,4 C 29,2 C
08.07.2012 13:41 29,1 C 45 % 1008,8 hPa 0,0 l/m 10,8 km/h (2 Bft) S-SO 157 15,9 C 29,1 C
08.07.2012 13:46 28,8 C 46 % 1008,8 hPa 0,0 l/m 10,4 km/h (2 Bft) SO 135 16,0 C 28,8 C
08.07.2012 13:51 28,6 C 46 % 1008,8 hPa 0,0 l/m 10,4 km/h (2 Bft) SO 135 15,8 C 28,6 C
08.07.2012 13:56 28,5 C 46 % 1008,7 hPa 0,0 l/m 8,3 km/h (2 Bft) SW 225 15,7 C 28,5 C
08.07.2012 14:01 28,7 C 46 % 1008,7 hPa 0,0 l/m 4,0 km/h (1 Bft) SO 135 15,9 C 28,7 C
08.07.2012 14:06 28,6 C 46 % 1008,8 hPa 0,0 l/m 6,8 km/h (2 Bft) S-SO 157 15,8 C 28,6 C
08.07.2012 14:11 28,4 C 47 % 1008,8 hPa 0,0 l/m 12,6 km/h (3 Bft) S 180 16,0 C 28,4 C
08.07.2012 14:16 27,9 C 48 % 1008,7 hPa 0,0 l/m 8,3 km/h (2 Bft) S 180 15,9 C 27,9 C
08.07.2012 14:21 27,9 C 49 % 1008,7 hPa 0,0 l/m 3,6 km/h (1 Bft) S 180 16,2 C 27,9 C
08.07.2012 14:26 27,6 C 49 % 1008,9 hPa 0,0 l/m 5,0 km/h (1 Bft) SO 135 15,9 C 27,6 C
08.07.2012 14:31 27,6 C 50 % 1008,8 hPa 0,0 l/m 7,9 km/h (2 Bft) SW 225 16,2 C 27,6 C
08.07.2012 14:36 27,5 C 50 % 1008,8 hPa 0,0 l/m 0,0 km/h (0 Bft) SO 135 16,1 C 27,5 C
08.07.2012 14:41 27,5 C 50 % 1008,7 hPa 0,0 l/m 7,2 km/h (2 Bft) S-SW 202 16,1 C 27,5 C
08.07.2012 14:46 27,5 C 50 % 1008,8 hPa 0,0 l/m 5,0 km/h (1 Bft) S 180 16,1 C 27,5 C
08.07.2012 14:51 27,3 C 51 % 1008,7 hPa 0,0 l/m 11,2 km/h (2 Bft) SO 135 16,3 C 27,3 C
08.07.2012 14:56 27,1 C 51 % 1008,7 hPa 0,0 l/m 10,4 km/h (2 Bft) S-SO 157 16,1 C 27,1 C
08.07.2012 15:01 26,6 C 51 % 1008,8 hPa 0,0 l/m 4,3 km/h (1 Bft) S-SO 157 15,6 C 26,6 C
08.07.2012 15:06 26,1 C 54 % 1008,7 hPa 0,0 l/m 7,9 km/h (2 Bft) S 180 16,0 C 26,1 C
08.07.2012 15:11 25,6 C 60 % 1008,9 hPa 0,0 l/m 5,4 km/h (1 Bft) S 180 17,2 C 25,6 C
08.07.2012 15:16 25,0 C 62 % 1009,0 hPa 0,0 l/m 11,9 km/h (2 Bft) S-SW 202 17,2 C 25,0 C
08.07.2012 15:21 23,5 C 66 % 1009,3 hPa 0,0 l/m 21,6 km/h (4 Bft) W-SW 247 16,8 C 23,5 C
08.07.2012 15:26 22,3 C 71 % 1009,2 hPa 0,5 l/m 11,9 km/h (2 Bft) SW 225 16,8 C 22,3 C
08.07.2012 15:31 21,7 C 73 % 1009,2 hPa 0,0 l/m 11,5 km/h (2 Bft) W-SW 247 16,6 C 21,7 C
08.07.2012 15:36 21,4 C 74 % 1009,6 hPa 0,0 l/m 8,3 km/h (2 Bft) SW 225 16,6 C 21,4 C
08.07.2012 15:41 20,9 C 75 % 1009,3 hPa 1,0 l/m 13,0 km/h (3 Bft) W-SW 247 16,3 C 20,9 C
08.07.2012 15:46 20,6 C 77 % 1009,4 hPa 0,5 l/m 10,8 km/h (2 Bft) W-SW 247 16,4 C 20,6 C
08.07.2012 15:51 20,5 C 78 % 1009,2 hPa 0,0 l/m 4,0 km/h (1 Bft) SW 225 16,5 C 20,5 C
08.07.2012 15:56 20,6 C 79 % 1009,2 hPa 0,0 l/m 3,2 km/h (1 Bft) S-SO 157 16,8 C 20,6 C
08.07.2012 16:01 20,6 C 79 % 1008,5 hPa 0,5 l/m 1,1 km/h (1 Bft) SO 135 16,8 C 20,6 C
08.07.2012 16:06 20,8 C 80 % 1008,4 hPa 0,5 l/m 0,0 km/h (0 Bft) SO 135 17,2 C 20,8 C
08.07.2012 16:11 21,6 C 81 % 1008,6 hPa 0,0 l/m 0,0 km/h (0 Bft) SO 135 18,2 C 21,6 C
08.07.2012 16:16 22,4 C 79 % 1008,7 hPa 0,0 l/m 4,0 km/h (1 Bft) S-SO 157 18,6 C 22,4 C
08.07.2012 16:21 22,9 C 77 % 1008,6 hPa 0,0 l/m 5,8 km/h (2 Bft) S-SO 157 18,6 C 22,9 C
08.07.2012 16:26 23,1 C 75 % 1008,5 hPa 0,0 l/m 3,6 km/h (1 Bft) S-SO 157 18,4 C 23,1 C
08.07.2012 16:31 23,4 C 75 % 1008,5 hPa 0,0 l/m 4,7 km/h (1 Bft) S-SW 202 18,7 C 23,4 C
08.07.2012 16:36 23,5 C 74 % 1008,4 hPa 0,0 l/m 3,6 km/h (1 Bft) S-SW 202 18,6 C 23,5 C
08.07.2012 16:41 23,7 C 74 % 1008,2 hPa 0,0 l/m 2,9 km/h (1 Bft) S 180 18,8 C 23,7 C
08.07.2012 16:46 23,9 C 73 % 1008,0 hPa 0,0 l/m 2,2 km/h (1 Bft) S 180 18,8 C 23,9 C
08.07.2012 16:51 23,9 C 73 % 1008,1 hPa 0,0 l/m 3,6 km/h (1 Bft) SO 135 18,8 C 23,9 C
08.07.2012 16:56 24,2 C 73 % 1007,9 hPa 0,0 l/m 1,4 km/h (1 Bft) SO 135 19,0 C 24,2 C
08.07.2012 17:01 24,9 C 72 % 1007,7 hPa 0,0 l/m 4,3 km/h (1 Bft) S-SO 157 19,5 C 24,9 C
08.07.2012 17:06 25,3 C 69 % 1007,7 hPa 0,0 l/m 5,0 km/h (1 Bft) S-SO 157 19,2 C 25,3 C
08.07.2012 17:11 25,6 C 68 % 1007,8 hPa 0,0 l/m 7,2 km/h (2 Bft) S 180 19,2 C 25,6 C
08.07.2012 17:16 25,6 C 67 % 1007,9 hPa 0,0 l/m 0,0 km/h (0 Bft) S-SW 202 19,0 C 25,6 C
08.07.2012 17:21 26,5 C 66 % 1007,8 hPa 0,0 l/m 0,0 km/h (0 Bft) S-SW 202 19,6 C 26,5 C
08.07.2012 17:26 26,6 C 64 % 1007,8 hPa 0,0 l/m 0,0 km/h (0 Bft) S-SW 202 19,2 C 26,6 C
08.07.2012 17:31 26,9 C 63 % 1007,8 hPa 0,0 l/m 9,0 km/h (2 Bft) S-SW 202 19,2 C 26,9 C
08.07.2012 17:36 27,4 C 61 % 1007,9 hPa 0,0 l/m 3,2 km/h (1 Bft) S 180 19,2 C 27,4 C
08.07.2012 17:41 27,7 C 60 % 1008,0 hPa 0,0 l/m 7,6 km/h (2 Bft) W-SW 247 19,2 C 27,7 C
08.07.2012 17:46 27,6 C 60 % 1008,0 hPa 0,0 l/m 6,1 km/h (2 Bft) S 180 19,1 C 27,6 C
08.07.2012 17:51 27,4 C 60 % 1008,1 hPa 0,0 l/m 5,0 km/h (1 Bft) S 180 18,9 C 27,4 C
08.07.2012 17:56 26,4 C 62 % 1007,9 hPa 0,0 l/m 2,2 km/h (1 Bft) S 180 18,5 C 26,4 C
08.07.2012 18:01 25,6 C 63 % 1008,0 hPa 0,0 l/m 3,6 km/h (1 Bft) S-SO 157 18,0 C 25,6 C
08.07.2012 18:06 24,9 C 66 % 1008,0 hPa 0,0 l/m 3,2 km/h (1 Bft) S-SO 157 18,1 C 24,9 C
08.07.2012 18:11 24,4 C 67 % 1007,9 hPa 0,0 l/m 3,2 km/h (1 Bft) S-SO 157 17,9 C 24,4 C
08.07.2012 18:16 24,1 C 68 % 1008,0 hPa 0,0 l/m 7,6 km/h (2 Bft) S-SW 202 17,8 C 24,1 C
08.07.2012 18:21 24,4 C 68 % 1008,0 hPa 0,0 l/m 4,3 km/h (1 Bft) S 180 18,1 C 24,4 C
08.07.2012 18:26 25,4 C 66 % 1007,9 hPa 0,0 l/m 4,3 km/h (1 Bft) S 180 18,6 C 25,4 C
08.07.2012 18:31 25,9 C 64 % 1007,7 hPa 0,0 l/m 3,2 km/h (1 Bft) S-SW 202 18,6 C 25,9 C
08.07.2012 18:36 26,4 C 62 % 1007,7 hPa 0,0 l/m 13,7 km/h (3 Bft) S-SW 202 18,5 C 26,4 C
08.07.2012 18:41 26,5 C 60 % 1007,6 hPa 0,0 l/m 3,2 km/h (1 Bft) S-SO 157 18,1 C 26,5 C
08.07.2012 18:46 26,6 C 60 % 1007,6 hPa 0,0 l/m 7,6 km/h (2 Bft) S-SW 202 18,2 C 26,6 C
08.07.2012 18:51 26,7 C 59 % 1007,6 hPa 0,0 l/m 7,9 km/h (2 Bft) SW 225 18,0 C 26,7 C
08.07.2012 18:56 26,8 C 58 % 1007,6 hPa 0,0 l/m 4,7 km/h (1 Bft) SW 225 17,8 C 26,8 C
08.07.2012 19:01 26,1 C 59 % 1007,5 hPa 0,0 l/m 6,1 km/h (2 Bft) S-SW 202 17,4 C 26,1 C
08.07.2012 19:06 25,9 C 60 % 1007,6 hPa 0,0 l/m 10,1 km/h (2 Bft) W-SW 247 17,5 C 25,9 C
08.07.2012 19:11 25,9 C 58 % 1007,6 hPa 0,0 l/m 13,7 km/h (3 Bft) S 180 17,0 C 25,9 C
08.07.2012 19:16 25,8 C 56 % 1007,7 hPa 0,0 l/m 14,4 km/h (3 Bft) SW 225 16,3 C 25,8 C
08.07.2012 19:21 24,9 C 58 % 1007,5 hPa 0,0 l/m 8,6 km/h (2 Bft) SW 225 16,1 C 24,9 C
08.07.2012 19:26 25,4 C 58 % 1007,7 hPa 0,0 l/m 4,0 km/h (1 Bft) W-SW 247 16,5 C 25,4 C
08.07.2012 19:31 25,3 C 57 % 1007,6 hPa 0,0 l/m 7,2 km/h (2 Bft) S-SW 202 16,2 C 25,3 C
08.07.2012 19:36 25,4 C 58 % 1007,9 hPa 0,0 l/m 5,0 km/h (1 Bft) SW 225 16,5 C 25,4 C
08.07.2012 19:41 25,3 C 58 % 1007,7 hPa 0,0 l/m 5,8 km/h (2 Bft) SW 225 16,4 C 25,3 C
08.07.2012 19:46 24,5 C 59 % 1007,8 hPa 0,0 l/m 0,0 km/h (0 Bft) SW 225 15,9 C 24,5 C
08.07.2012 19:51 24,1 C 60 % 1007,9 hPa 0,0 l/m 5,0 km/h (1 Bft) S-SO 157 15,8 C 24,1 C
08.07.2012 19:56 23,6 C 61 % 1007,9 hPa 0,0 l/m 4,0 km/h (1 Bft) S-SW 202 15,6 C 23,6 C
08.07.2012 20:01 23,4 C 62 % 1007,9 hPa 0,0 l/m 4,0 km/h (1 Bft) SW 225 15,7 C 23,4 C
08.07.2012 20:06 23,3 C 62 % 1008,0 hPa 0,0 l/m 12,2 km/h (2 Bft) W-SW 247 15,6 C 23,3 C
08.07.2012 20:11 23,2 C 62 % 1007,9 hPa 0,0 l/m 9,0 km/h (2 Bft) W-SW 247 15,5 C 23,2 C
08.07.2012 20:16 23,1 C 61 % 1007,8 hPa 0,0 l/m 5,0 km/h (1 Bft) W-SW 247 15,2 C 23,1 C
08.07.2012 20:21 22,9 C 62 % 1008,0 hPa 0,0 l/m 5,8 km/h (2 Bft) S-SW 202 15,2 C 22,9 C
08.07.2012 20:26 23,3 C 62 % 1007,8 hPa 0,0 l/m 5,0 km/h (1 Bft) W-SW 247 15,6 C 23,3 C
08.07.2012 20:31 23,8 C 61 % 1008,1 hPa 0,0 l/m 4,7 km/h (1 Bft) W-SW 247 15,8 C 23,8 C
08.07.2012 20:36 23,6 C 61 % 1008,1 hPa 0,0 l/m 2,2 km/h (1 Bft) S-SW 202 15,6 C 23,6 C
08.07.2012 20:41 23,4 C 61 % 1008,0 hPa 0,0 l/m 3,6 km/h (1 Bft) S-SW 202 15,4 C 23,4 C
08.07.2012 20:46 23,2 C 61 % 1008,1 hPa 0,0 l/m 4,0 km/h (1 Bft) S-SW 202 15,3 C 23,2 C
08.07.2012 20:51 23,1 C 61 % 1008,1 hPa 0,0 l/m 5,8 km/h (2 Bft) SW 225 15,2 C 23,1 C
08.07.2012 20:56 22,9 C 61 % 1008,3 hPa 0,0 l/m 7,6 km/h (2 Bft) W-SW 247 15,0 C 22,9 C
08.07.2012 21:01 22,8 C 61 % 1008,0 hPa 0,0 l/m 2,5 km/h (1 Bft) SW 225 14,9 C 22,8 C
08.07.2012 21:06 22,6 C 62 % 1008,1 hPa 0,0 l/m 4,0 km/h (1 Bft) S-SW 202 14,9 C 22,6 C
08.07.2012 21:11 22,4 C 62 % 1008,1 hPa 0,0 l/m 10,4 km/h (2 Bft) S-SW 202 14,8 C 22,4 C
08.07.2012 21:16 22,2 C 62 % 1008,1 hPa 0,0 l/m 9,0 km/h (2 Bft) SW 225 14,6 C 22,2 C
08.07.2012 21:21 22,1 C 62 % 1008,2 hPa 0,0 l/m 13,0 km/h (3 Bft) W 270 14,5 C 22,1 C
08.07.2012 21:26 21,9 C 62 % 1008,3 hPa 0,0 l/m 4,0 km/h (1 Bft) W-SW 247 14,3 C 21,9 C
08.07.2012 21:31 21,8 C 62 % 1008,3 hPa 0,0 l/m 14,4 km/h (3 Bft) SW 225 14,2 C 21,8 C
08.07.2012 21:36 21,6 C 62 % 1008,3 hPa 0,0 l/m 4,7 km/h (1 Bft) S-SW 202 14,0 C 21,6 C
08.07.2012 21:41 21,4 C 63 % 1008,3 hPa 0,0 l/m 10,8 km/h (2 Bft) W-SW 247 14,1 C 21,4 C
08.07.2012 21:46 21,2 C 64 % 1008,4 hPa 0,0 l/m 10,1 km/h (2 Bft) SW 225 14,1 C 21,2 C
08.07.2012 21:51 21,1 C 64 % 1008,4 hPa 0,0 l/m 5,4 km/h (1 Bft) W 270 14,0 C 21,1 C
08.07.2012 21:56 20,9 C 65 % 1008,5 hPa 0,0 l/m 7,6 km/h (2 Bft) S-SW 202 14,1 C 20,9 C
08.07.2012 22:01 20,9 C 64 % 1008,6 hPa 0,0 l/m 5,4 km/h (1 Bft) S-SW 202 13,8 C 20,9 C
08.07.2012 22:06 20,9 C 65 % 1008,6 hPa 0,0 l/m 13,0 km/h (3 Bft) W-SW 247 14,1 C 20,9 C
08.07.2012 22:11 20,8 C 65 % 1008,5 hPa 0,0 l/m 7,2 km/h (2 Bft) S-SW 202 14,0 C 20,8 C
08.07.2012 22:16 20,6 C 65 % 1008,4 hPa 0,0 l/m 12,2 km/h (2 Bft) W-SW 247 13,8 C 20,6 C
08.07.2012 22:21 20,5 C 65 % 1008,4 hPa 0,0 l/m 11,2 km/h (2 Bft) W-SW 247 13,7 C 20,5 C
08.07.2012 22:26 20,4 C 66 % 1008,6 hPa 0,0 l/m 7,6 km/h (2 Bft) S-SW 202 13,8 C 20,4 C
08.07.2012 22:31 20,2 C 67 % 1008,6 hPa 0,0 l/m 3,2 km/h (1 Bft) S-SW 202 13,9 C 20,2 C
08.07.2012 22:36 20,1 C 67 % 1008,6 hPa 0,0 l/m 3,6 km/h (1 Bft) S-SW 202 13,8 C 20,1 C
08.07.2012 22:41 19,9 C 68 % 1008,7 hPa 0,0 l/m 4,7 km/h (1 Bft) W 270 13,8 C 19,9 C
08.07.2012 22:46 19,9 C 68 % 1008,7 hPa 0,0 l/m 7,6 km/h (2 Bft) SW 225 13,8 C 19,9 C
08.07.2012 22:51 19,8 C 69 % 1008,7 hPa 0,0 l/m 9,7 km/h (2 Bft) SW 225 13,9 C 19,8 C
08.07.2012 22:56 19,8 C 69 % 1008,7 hPa 0,0 l/m 3,6 km/h (1 Bft) S-SW 202 13,9 C 19,8 C
08.07.2012 23:01 19,6 C 69 % 1008,7 hPa 0,0 l/m 5,8 km/h (2 Bft) S-SW 202 13,8 C 19,6 C
08.07.2012 23:06 19,5 C 69 % 1008,9 hPa 0,0 l/m 7,6 km/h (2 Bft) SW 225 13,7 C 19,5 C
08.07.2012 23:11 19,4 C 70 % 1008,7 hPa 0,0 l/m 8,3 km/h (2 Bft) NW 315 13,8 C 19,4 C
08.07.2012 23:16 19,4 C 70 % 1008,8 hPa 0,0 l/m 13,7 km/h (3 Bft) S-SW 202 13,8 C 19,4 C
08.07.2012 23:21 19,3 C 70 % 1008,8 hPa 0,0 l/m 6,1 km/h (2 Bft) S-SW 202 13,7 C 19,3 C
08.07.2012 23:26 19,3 C 71 % 1008,8 hPa 0,0 l/m 11,9 km/h (2 Bft) W-SW 247 13,9 C 19,3 C
08.07.2012 23:31 19,3 C 71 % 1008,8 hPa 0,0 l/m 7,2 km/h (2 Bft) SW 225 13,9 C 19,3 C
08.07.2012 23:36 19,2 C 71 % 1008,8 hPa 0,0 l/m 4,7 km/h (1 Bft) S 180 13,8 C 19,2 C
08.07.2012 23:41 19,1 C 71 % 1008,8 hPa 0,0 l/m 4,0 km/h (1 Bft) S-SW 202 13,7 C 19,1 C
08.07.2012 23:46 18,9 C 72 % 1008,8 hPa 0,0 l/m 2,5 km/h (1 Bft) S-SO 157 13,7 C 18,9 C
08.07.2012 23:51 18,8 C 72 % 1008,7 hPa 0,0 l/m 6,5 km/h (2 Bft) SW 225 13,6 C 18,8 C
08.07.2012 23:56 18,7 C 73 % 1008,7 hPa 0,0 l/m 6,1 km/h (2 Bft) S-SO 157 13,8 C 18,7 C
_ Min-Zeit 05:11 13:11 19:01 - 00:06 - - 05:11 05:11
Minimum _ 14,4 C 43 % 1007,5 hPa - 0,0 km/h (0 Bft) - - 12,8 C 14,4 C
_ Max-Zeit 13:06 05:21 00:01 15:41 15:21 - - 17:21 13:06
Maximum _ 30,1 C 91 % 1013,5 hPa 1,0 l/m 21,6 km/h
W-SW (4 Bft)
- - 19,6 C 30,1 C
Durchschnitt _ 22,2 C 68 % 1010,0 hPa #3,1 l/m 5,4 km/h (1 Bft) SO - 15,6 C 22,2 C
(c) by David Heller